Marfrance, West Virginia
Current Conditions -  °F | °C
As of 5:30 AM on Wednesday 22 Oct 2014 (Local Time) from KLWB Reporting Station
Overcast Overcast  
Wind Chill: 43°   Ceiling: 2600
Heat Index: 45°   Visibility: 10mi
Dew Point: 37°   Wind: 5mph
Humidity: 75%   Direction: 320°NW
Pressure: 30.03"   Gusts: NA
Location:  38.054°N, 80.6739°W
Report Text: KLWB 220930Z AUTO 32004KT 10SM BKN026 OVC033 07/03 A3003 RMK AO2 LTG DSNT E T00720030
Loading
Personal Weather Stations






























Interactive Weather Map
Tropical Storm Tracking
New forecast layout! Learn more

10-Day Weather Forecast

Advertisements
Track Severe Weather on mobile